createdAt,value
2022-08-10T00:04:49.406Z,101613.50
2022-08-10T00:09:53.720Z,101624.09
2022-08-10T00:14:56.694Z,101623.19
2022-08-10T00:20:04.153Z,101625.78
2022-08-10T00:25:12.645Z,101626.66
2022-08-10T00:30:15.631Z,101617.19
2022-08-10T00:35:18.617Z,101619.94
2022-08-10T00:40:37.132Z,101618.88
2022-08-10T00:45:40.940Z,101622.47
2022-08-10T00:50:43.876Z,101626.91
2022-08-10T00:57:14.045Z,101628.69
2022-08-10T01:01:11.661Z,101620.06
2022-08-10T01:06:40.724Z,101629.69
2022-08-10T01:12:37.621Z,101628.09
2022-08-10T01:17:15.510Z,101628.97
2022-08-10T01:22:29.894Z,101630.81
2022-08-10T01:27:37.070Z,101631.00
2022-08-10T01:32:45.700Z,101641.56
2022-08-10T01:37:52.541Z,101635.66
2022-08-10T01:42:59.699Z,101640.13
2022-08-10T01:48:31.611Z,101637.59
2022-08-10T01:53:40.025Z,101632.31
2022-08-10T01:58:45.083Z,101633.31
2022-08-10T02:04:03.067Z,101638.72
2022-08-10T02:09:10.005Z,101645.78
2022-08-10T02:14:14.414Z,101637.09
2022-08-10T02:19:20.914Z,101642.38
2022-08-10T02:24:25.736Z,101640.59
2022-08-10T02:29:29.437Z,101640.81
2022-08-10T02:34:34.472Z,101650.41
2022-08-10T02:39:38.679Z,101653.97
2022-08-10T02:45:22.328Z,101652.34
2022-08-10T02:50:13.656Z,101656.78
2022-08-10T02:55:31.685Z,101648.09
2022-08-10T03:00:37.505Z,101653.38
2022-08-10T03:05:42.971Z,101650.00
2022-08-10T03:10:46.372Z,101660.44
2022-08-10T03:15:51.380Z,101659.66
2022-08-10T03:20:57.142Z,101651.88
2022-08-10T03:26:01.049Z,101662.34
2022-08-10T03:31:04.585Z,101658.97
2022-08-10T03:36:41.943Z,101659.09
2022-08-10T03:41:35.962Z,101663.34
2022-08-10T03:46:42.056Z,101663.31
2022-08-10T03:51:49.209Z,101672.28
2022-08-10T03:56:52.719Z,101680.19
2022-08-10T04:02:44.856Z,101680.94
2022-08-10T04:07:20.310Z,101681.84
2022-08-10T04:12:23.252Z,101675.81
2022-08-10T04:18:03.540Z,101685.38
2022-08-10T04:22:53.151Z,101689.81
2022-08-10T04:27:56.347Z,101689.66
2022-08-10T04:33:00.918Z,101693.19
2022-08-10T04:38:05.674Z,101691.38
2022-08-10T04:43:12.860Z,101694.13
2022-08-10T04:48:42.019Z,101693.06
2022-08-10T04:54:04.136Z,101700.88
2022-08-10T04:59:03.779Z,101706.09
2022-08-10T05:04:34.028Z,101707.75
2022-08-10T05:09:31.276Z,101711.09
2022-08-10T05:14:34.237Z,101714.50
2022-08-10T05:20:03.371Z,101702.91
2022-08-10T05:25:01.477Z,101703.75
2022-08-10T05:30:04.949Z,101708.03
2022-08-10T05:35:08.263Z,101710.47
2022-08-10T05:40:13.216Z,101716.41
2022-08-10T05:45:20.156Z,101714.66
2022-08-10T05:50:31.086Z,101715.38
2022-08-10T05:55:35.603Z,101708.38
2022-08-10T06:00:48.348Z,101712.59
2022-08-10T06:05:54.865Z,101710.88
2022-08-10T06:12:24.685Z,101710.69
2022-08-10T06:16:25.249Z,101708.66
2022-08-10T06:21:29.626Z,101711.84
2022-08-10T06:26:33.962Z,101713.38
2022-08-10T06:31:47.678Z,101712.66
2022-08-10T06:36:53.082Z,101716.75
2022-08-10T06:42:16.460Z,101713.22
2022-08-10T06:47:23.224Z,101713.00
2022-08-10T06:52:26.563Z,101702.19
2022-08-10T06:57:32.216Z,101702.00
2022-08-10T07:02:37.923Z,101693.88
2022-08-10T07:07:44.099Z,101700.72
2022-08-10T07:12:49.880Z,101701.56
2022-08-10T07:17:53.833Z,101700.56
2022-08-10T07:23:26.960Z,101699.31
2022-08-10T07:28:23.025Z,101700.88
2022-08-10T07:33:26.049Z,101694.53
2022-08-10T07:38:31.251Z,101693.34
2022-08-10T07:43:38.240Z,101697.59
2022-08-10T07:48:43.294Z,101696.59
2022-08-10T07:53:48.105Z,101709.47
2022-08-10T07:58:55.166Z,101705.63
2022-08-10T08:04:10.664Z,101705.78
2022-08-10T08:09:14.684Z,101691.91
2022-08-10T08:14:20.388Z,101694.75
2022-08-10T08:19:26.675Z,101691.00
2022-08-10T08:24:34.342Z,101676.72
2022-08-10T08:29:42.120Z,101679.88
2022-08-10T08:34:46.155Z,101673.72
2022-08-10T08:39:49.284Z,101667.97
2022-08-10T08:45:01.452Z,101671.72
2022-08-10T08:50:10.272Z,101655.06
2022-08-10T08:56:04.653Z,101666.06
2022-08-10T09:00:56.924Z,101661.91
2022-08-10T09:06:06.066Z,101663.66
2022-08-10T09:11:13.554Z,101656.41
2022-08-10T09:16:25.598Z,101656.28
2022-08-10T09:21:31.593Z,101649.50
2022-08-10T09:26:39.167Z,101654.31
2022-08-10T09:33:05.575Z,101644.38
2022-08-10T09:37:15.096Z,101645.09
2022-08-10T09:42:22.351Z,101648.97
2022-08-10T09:47:40.264Z,101637.03
2022-08-10T09:53:05.339Z,101647.38
2022-08-10T09:58:20.810Z,101632.25
2022-08-10T10:03:30.764Z,101588.97
2022-08-10T10:08:42.642Z,101582.47
2022-08-10T10:14:02.744Z,101589.09
2022-08-10T10:19:17.415Z,101597.44
2022-08-10T10:24:23.236Z,101602.16
2022-08-10T10:29:57.192Z,101603.00
2022-08-10T10:35:00.618Z,101600.53
2022-08-10T10:40:04.821Z,101599.97
2022-08-10T10:45:17.439Z,101595.16
2022-08-10T10:50:25.456Z,101593.81
2022-08-10T10:55:30.984Z,101583.28
2022-08-10T11:00:38.107Z,101567.38
2022-08-10T11:05:46.786Z,101557.41
2022-08-10T11:10:52.805Z,101554.13
2022-08-10T11:16:00.982Z,101545.75
2022-08-10T11:21:11.928Z,101555.28
2022-08-10T11:26:19.794Z,101554.09
2022-08-10T11:31:25.625Z,101555.16
2022-08-10T11:36:32.585Z,101542.00
2022-08-10T11:42:07.950Z,101549.47
2022-08-10T11:47:08.111Z,101544.94
2022-08-10T11:52:15.940Z,101546.16
2022-08-10T11:57:21.117Z,101546.19
2022-08-10T12:02:26.372Z,101537.81
2022-08-10T12:10:02.349Z,101537.56
2022-08-10T12:12:56.333Z,101524.69
2022-08-10T12:18:02.205Z,101520.34
2022-08-10T12:23:12.855Z,101513.19
2022-08-10T12:28:18.801Z,101506.41
2022-08-10T12:33:23.969Z,101512.97
2022-08-10T12:38:32.504Z,101510.16
2022-08-10T12:44:07.454Z,101501.53
2022-08-10T12:49:04.041Z,101499.69
2022-08-10T12:54:11.480Z,101502.00
2022-08-10T12:59:14.654Z,101497.44
2022-08-10T13:04:23.282Z,101490.81
2022-08-10T13:09:29.523Z,101491.69
2022-08-10T13:14:33.588Z,101478.25
2022-08-10T13:19:55.130Z,101473.53
2022-08-10T13:25:02.668Z,101461.16
2022-08-10T13:30:07.298Z,101453.28
2022-08-10T13:35:15.482Z,101459.91
2022-08-10T13:40:21.369Z,101481.72
2022-08-10T13:45:26.476Z,101464.22
2022-08-10T13:50:34.957Z,101466.34
2022-08-10T13:55:46.095Z,101463.22
2022-08-10T14:00:59.830Z,101458.69
2022-08-10T14:06:05.262Z,101455.38
2022-08-10T14:11:12.620Z,101452.28
2022-08-10T14:16:16.967Z,101450.72
2022-08-10T14:21:20.113Z,101447.44
2022-08-10T14:26:26.183Z,101457.78
2022-08-10T14:31:31.106Z,101454.53
2022-08-10T14:36:41.741Z,101459.97
2022-08-10T14:42:01.329Z,101470.53
2022-08-10T14:47:51.592Z,101463.28
2022-08-10T14:52:38.971Z,101464.88
2022-08-10T14:58:20.243Z,101457.97
2022-08-10T15:04:02.338Z,101457.53
2022-08-10T15:08:42.088Z,101460.25
2022-08-10T15:14:15.408Z,101448.69
2022-08-10T15:20:01.549Z,101444.69
2022-08-10T15:24:57.019Z,101443.16
2022-08-10T15:30:01.588Z,101443.44
2022-08-10T15:35:25.519Z,101446.53
2022-08-10T15:40:37.340Z,101435.63
2022-08-10T15:45:50.794Z,101434.91
2022-08-10T15:50:59.143Z,101430.50
2022-08-10T15:56:06.451Z,101437.84
2022-08-10T16:02:13.067Z,101433.63
2022-08-10T16:06:40.495Z,101432.78
2022-08-10T16:11:43.986Z,101433.09
2022-08-10T16:16:50.117Z,101436.06
2022-08-10T16:21:57.995Z,101426.75
2022-08-10T16:27:07.376Z,101428.13
2022-08-10T16:32:12.322Z,101427.59
2022-08-10T16:37:16.574Z,101429.91
2022-08-10T16:42:22.645Z,101427.53
2022-08-10T16:47:28.739Z,101425.16
2022-08-10T16:52:33.561Z,101421.88
2022-08-10T16:57:39.155Z,101431.75
2022-08-10T17:02:49.418Z,101431.19
2022-08-10T17:07:52.515Z,101424.44
2022-08-10T17:12:57.730Z,101427.38
2022-08-10T17:18:03.904Z,101423.94
2022-08-10T17:23:08.814Z,101433.81
2022-08-10T17:28:12.824Z,101433.22
2022-08-10T17:33:20.531Z,101432.56
2022-08-10T17:38:24.671Z,101439.78
2022-08-10T17:43:58.494Z,101432.03
2022-08-10T17:48:55.775Z,101438.47
2022-08-10T17:53:59.484Z,101440.56
2022-08-10T17:59:10.077Z,101444.47
2022-08-10T18:04:22.089Z,101442.19
2022-08-10T18:09:31.009Z,101449.63
2022-08-10T18:14:35.053Z,101459.84
2022-08-10T18:19:41.313Z,101468.16
2022-08-10T18:24:44.964Z,101463.06
2022-08-10T18:29:50.103Z,101466.88
2022-08-10T18:34:59.461Z,101470.69
2022-08-10T18:40:03.281Z,101466.63
2022-08-10T18:45:09.165Z,101473.94
2022-08-10T18:50:15.226Z,101475.22
2022-08-10T18:55:22.985Z,101471.91
2022-08-10T19:00:33.083Z,101486.28
2022-08-10T19:05:52.107Z,101478.63
2022-08-10T19:10:58.645Z,101487.81
2022-08-10T19:16:04.706Z,101494.06
2022-08-10T19:21:14.288Z,101498.50
2022-08-10T19:26:43.394Z,101490.72
2022-08-10T19:31:51.089Z,101499.59
2022-08-10T19:37:01.373Z,101498.94
2022-08-10T19:42:11.958Z,101496.50
2022-08-10T19:47:20.685Z,101494.09
2022-08-10T19:52:30.818Z,101496.91
2022-08-10T19:57:37.176Z,101504.34
2022-08-10T20:02:44.960Z,101497.59
2022-08-10T20:07:52.036Z,101509.19
2022-08-10T20:13:01.050Z,101503.22
2022-08-10T20:18:07.419Z,101500.72
2022-08-10T20:23:19.578Z,101498.19
2022-08-10T20:28:28.343Z,101494.28
2022-08-10T20:33:38.878Z,101501.47
2022-08-10T20:38:47.034Z,101501.75
2022-08-10T20:43:57.498Z,101497.31
2022-08-10T20:49:02.580Z,101495.00
2022-08-10T20:54:08.596Z,101502.75
2022-08-10T20:59:19.271Z,101500.41
2022-08-10T21:04:37.234Z,101499.59
2022-08-10T21:09:50.903Z,101485.06
2022-08-10T21:14:57.182Z,101480.75
2022-08-10T21:20:06.795Z,101491.47
2022-08-10T21:25:15.867Z,101496.06
2022-08-10T21:30:20.506Z,101496.31
2022-08-10T21:35:37.005Z,101497.41
2022-08-10T21:41:17.632Z,101496.56
2022-08-10T21:46:54.957Z,101490.59
2022-08-10T21:52:21.129Z,101500.44
2022-08-10T21:57:45.062Z,101497.72
2022-08-10T22:03:07.474Z,101500.44
2022-08-10T22:08:29.977Z,101504.03
2022-08-10T22:13:53.279Z,101495.38
2022-08-10T22:19:16.786Z,101496.25
2022-08-10T22:24:43.465Z,101491.97
2022-08-10T22:30:06.595Z,101491.06
2022-08-10T22:35:49.644Z,101484.25
2022-08-10T22:41:10.967Z,101493.03
2022-08-10T22:46:34.341Z,101479.88
2022-08-10T22:51:48.475Z,101466.81
2022-08-10T22:57:08.933Z,101471.50
2022-08-10T23:02:13.288Z,101476.66
2022-08-10T23:07:22.451Z,101482.75
2022-08-10T23:12:28.791Z,101479.06
2022-08-10T23:18:00.418Z,101475.69
2022-08-10T23:23:10.132Z,101476.75
2022-08-10T23:28:15.299Z,101482.91
2022-08-10T23:33:37.665Z,101481.19
2022-08-10T23:38:43.151Z,101479.41
2022-08-10T23:44:03.271Z,101480.50
2022-08-10T23:49:07.572Z,101474.38
2022-08-10T23:54:15.172Z,101472.56
2022-08-10T23:59:20.435Z,101471.63
